Time;durP1;ratioP1;P1;durP2;ratioP2;P2;SDS_P1;SDS_P2;PMS_P1;PMS_P2;Temp;Humidity;BMP_temperature;BMP_pressure;BME280_temperature;BME280_humidity;BME280_pressure;Samples;Min_cycle;Max_cycle;Signal;HPM_P1;HPM_P2
2022/11/09 00:02:13;;;;;;;;;;;;;;;;;;5051342;28;20374;-62
2022/11/09 00:04:39;;;;;;;;;;;;;;;;;;5051467;28;19908;-61
2022/11/09 00:07:05;;;;;;;;;;;;;;;;;;5050767;28;20003;-61
2022/11/09 00:09:31;;;;;;;;;;;;;;;;;;5051023;28;19994;-61
2022/11/09 00:11:57;;;;;;;;;;;;;;;;;;5050373;28;20338;-61
2022/11/09 00:14:22;;;;;;;;;;;;;;;;;;5050575;28;19919;-61
2022/11/09 00:16:48;;;;;;;;;;;;;;;;;;5050824;28;20445;-61
2022/11/09 00:19:14;;;;;;;;;;;;;;;;;;5050819;28;19909;-61
2022/11/09 00:21:40;;;;;;;;;;;;;;;;;;5050513;28;19932;-61
2022/11/09 00:24:06;;;;;;;;;;;;;;;;;;5050234;28;19912;-60
2022/11/09 00:26:32;;;;;;;;;;;;;;;;;;5050078;28;19928;-61
2022/11/09 00:28:58;;;;;;;;;;;;;;;;;;5050354;28;19920;-61
2022/11/09 00:31:24;;;;;;;;;;;;;;;;;;5050336;28;20020;-61
2022/11/09 00:33:50;;;;;;;;;;;;;;;;;;5050663;28;19968;-62
2022/11/09 00:36:16;;;;;;;;;;;;;;;;;;5050206;28;19913;-61
2022/11/09 00:38:42;;;;;;;;;;;;;;;;;;5050593;28;19909;-61
2022/11/09 00:41:08;;;;;;;;;;;;;;;;;;5049465;28;19994;-60
2022/11/09 00:43:34;;;;;;;;;;;;;;;;;;5050603;28;19913;-60
2022/11/09 00:46:00;;;;;;;;;;;;;;;;;;5050188;28;19916;-60
2022/11/09 00:48:26;;;;;;;;;;;;;;;;;;5050321;28;20293;-60
2022/11/09 00:50:51;;;;;;;;;;;;;;;;;;5050133;28;19920;-61
2022/11/09 00:53:17;;;;;;;;;;;;;;;;;;5049841;28;19909;-60
2022/11/09 00:55:43;;;;;;;;;;;;;;;;;;5049833;28;20011;-60
2022/11/09 00:58:09;;;;;;;;;;;;;;;;;;5049796;28;19916;-60
2022/11/09 01:00:35;;;;;;;;;;;;;;;;;;5050334;28;20336;-61
2022/11/09 01:03:01;;;;;;;;;;;;;;;;;;5049986;28;19913;-60
2022/11/09 01:05:27;;;;;;;;;;;;;;;;;;5050121;28;20296;-60
2022/11/09 01:07:53;;;;;;;;;;;;;;;;;;5050037;28;19909;-60
2022/11/09 01:10:19;;;;;;;;;;;;;;;;;;5049465;28;19967;-61
2022/11/09 01:12:44;;;;;;;;;;;;;;;;;;5049387;28;19908;-61
2022/11/09 01:15:10;;;;;;;;;;;;;;;;;;5047313;28;19913;-60
2022/11/09 01:17:36;;;;;;;;;;;;;;;;;;5031802;28;20015;-61
2022/11/09 01:20:03;;;;;;;;;;;;;;;;;;5049311;28;19913;-60
2022/11/09 01:22:29;;;;;;;;;;;;;;;;;;5049525;28;19908;-61
2022/11/09 01:24:54;;;;;;;;;;;;;;;;;;5049155;28;20278;-60
2022/11/09 01:27:20;;;;;;;;;;;;;;;;;;5050130;28;19956;-60
2022/11/09 01:29:46;;;;;;;;;;;;;;;;;;5049873;28;19967;-61
2022/11/09 01:32:12;;;;;;;;;;;;;;;;;;5049668;28;19920;-61
2022/11/09 01:34:39;;;;;;;;;;;;;;;;;;5049437;28;19959;-61
2022/11/09 01:37:05;;;;;;;;;;;;;;;;;;5049492;28;19909;-61
2022/11/09 01:39:31;;;;;;;;;;;;;;;;;;5049255;28;19917;-61
2022/11/09 01:41:57;;;;;;;;;;;;;;;;;;5049933;28;20293;-61
2022/11/09 01:44:23;;;;;;;;;;;;;;;;;;5031476;28;19913;-61
2022/11/09 01:46:49;;;;;;;;;;;;;;;;;;5049674;28;20377;-61
2022/11/09 01:49:14;;;;;;;;;;;;;;;;;;5050121;28;20036;-61
2022/11/09 01:51:40;;;;;;;;;;;;;;;;;;5049755;28;20278;-61
2022/11/09 01:54:06;;;;;;;;;;;;;;;;;;5043895;28;19909;-61
2022/11/09 01:56:32;;;;;;;;;;;;;;;;;;5049849;28;19909;-61
2022/11/09 01:58:58;;;;;;;;;;;;;;;;;;5049248;28;19912;-61
2022/11/09 02:01:24;;;;;;;;;;;;;;;;;;5049304;28;19916;-61
2022/11/09 02:03:50;;;;;;;;;;;;;;;;;;5049174;28;19917;-61
2022/11/09 02:06:18;;;;;;;;;;;;;;;;;;5048274;28;20289;-61
2022/11/09 02:08:44;;;;;;;;;;;;;;;;;;5033878;28;20411;-61
2022/11/09 02:11:10;;;;;;;;;;;;;;;;;;5053300;28;19913;-61
2022/11/09 02:13:36;;;;;;;;;;;;;;;;;;5052642;28;19916;-61
2022/11/09 02:16:02;;;;;;;;;;;;;;;;;;5053148;28;19916;-61
2022/11/09 02:18:27;;;;;;;;;;;;;;;;;;5052580;28;19959;-60
2022/11/09 02:20:53;;;;;;;;;;;;;;;;;;5047579;28;19916;-60
2022/11/09 02:23:19;;;;;;;;;;;;;;;;;;5052455;28;19959;-61
2022/11/09 02:25:45;;;;;;;;;;;;;;;;;;5053305;28;20007;-61
2022/11/09 02:28:11;;;;;;;;;;;;;;;;;;5052605;28;19927;-60
2022/11/09 02:30:37;;;;;;;;;;;;;;;;;;5052927;28;20297;-60
2022/11/09 02:33:03;;;;;;;;;;;;;;;;;;5052509;28;19909;-61
2022/11/09 02:35:29;;;;;;;;;;;;;;;;;;5052516;28;20487;-61
2022/11/09 02:37:55;;;;;;;;;;;;;;;;;;5052542;28;19913;-61
2022/11/09 02:40:21;;;;;;;;;;;;;;;;;;5052730;28;20431;-60
2022/11/09 02:42:47;;;;;;;;;;;;;;;;;;5052158;28;20008;-61
2022/11/09 02:45:13;;;;;;;;;;;;;;;;;;5052600;28;19917;-61
2022/11/09 02:47:38;;;;;;;;;;;;;;;;;;5052436;28;19908;-61
2022/11/09 02:50:04;;;;;;;;;;;;;;;;;;5048442;28;19917;-61
2022/11/09 02:52:30;;;;;;;;;;;;;;;;;;5052503;28;20559;-61
2022/11/09 02:54:56;;;;;;;;;;;;;;;;;;5052456;28;19991;-62
2022/11/09 02:57:22;;;;;;;;;;;;;;;;;;5052150;28;20431;-61
2022/11/09 02:59:48;;;;;;;;;;;;;;;;;;5052735;28;19919;-61
2022/11/09 03:02:14;;;;;;;;;;;;;;;;;;5051876;28;20569;-61
2022/11/09 03:04:40;;;;;;;;;;;;;;;;;;5051984;28;19955;-61
2022/11/09 03:07:06;;;;;;;;;;;;;;;;;;5052372;28;19912;-62
2022/11/09 03:09:32;;;;;;;;;;;;;;;;;;5052012;28;19925;-61
2022/11/09 03:11:57;;;;;;;;;;;;;;;;;;5051924;28;19908;-61
2022/11/09 03:14:23;;;;;;;;;;;;;;;;;;5051628;28;20016;-62
2022/11/09 03:16:49;;;;;;;;;;;;;;;;;;5052493;28;19955;-61
2022/11/09 03:19:15;;;;;;;;;;;;;;;;;;5050044;28;19917;-62
2022/11/09 03:21:41;;;;;;;;;;;;;;;;;;5052028;28;19956;-62
2022/11/09 03:24:07;;;;;;;;;;;;;;;;;;5051649;28;19982;-62
2022/11/09 03:26:33;;;;;;;;;;;;;;;;;;5034038;28;19925;-61
2022/11/09 03:28:59;;;;;;;;;;;;;;;;;;5051542;28;20464;-62
2022/11/09 03:31:24;;;;;;;;;;;;;;;;;;5051884;28;19913;-62
2022/11/09 03:33:50;;;;;;;;;;;;;;;;;;5051405;28;19909;-61
2022/11/09 03:36:16;;;;;;;;;;;;;;;;;;5051756;28;19913;-62
2022/11/09 03:38:42;;;;;;;;;;;;;;;;;;5051509;28;19999;-62
2022/11/09 03:41:08;;;;;;;;;;;;;;;;;;5049226;28;19920;-62
2022/11/09 03:43:34;;;;;;;;;;;;;;;;;;5051541;28;19942;-61
2022/11/09 03:46:00;;;;;;;;;;;;;;;;;;5051489;28;20008;-61
2022/11/09 03:48:26;;;;;;;;;;;;;;;;;;5050717;28;19928;-61
2022/11/09 03:50:51;;;;;;;;;;;;;;;;;;5051283;28;19913;-61
2022/11/09 03:53:17;;;;;;;;;;;;;;;;;;5051742;28;19998;-60
2022/11/09 03:55:43;;;;;;;;;;;;;;;;;;5051153;28;19916;-60
2022/11/09 03:58:09;;;;;;;;;;;;;;;;;;5051394;28;19912;-61
2022/11/09 04:00:35;;;;;;;;;;;;;;;;;;5050759;28;19913;-60
2022/11/09 04:03:01;;;;;;;;;;;;;;;;;;5050799;28;19913;-60
2022/11/09 04:05:27;;;;;;;;;;;;;;;;;;5051525;28;19954;-61
2022/11/09 04:07:53;;;;;;;;;;;;;;;;;;5050886;28;19909;-61
2022/11/09 04:10:19;;;;;;;;;;;;;;;;;;5050997;28;19982;-61
2022/11/09 04:12:45;;;;;;;;;;;;;;;;;;5050865;28;20007;-61
2022/11/09 04:15:11;;;;;;;;;;;;;;;;;;5050652;28;20019;-61
2022/11/09 04:17:37;;;;;;;;;;;;;;;;;;5050366;28;19966;-61
2022/11/09 04:20:02;;;;;;;;;;;;;;;;;;5050614;28;19909;-61
2022/11/09 04:22:28;;;;;;;;;;;;;;;;;;5050333;28;20425;-61
2022/11/09 04:24:54;;;;;;;;;;;;;;;;;;5032635;28;19963;-62
2022/11/09 04:27:20;;;;;;;;;;;;;;;;;;5050468;28;19928;-61
2022/11/09 04:29:46;;;;;;;;;;;;;;;;;;5050378;28;19921;-61
2022/11/09 04:32:12;;;;;;;;;;;;;;;;;;5046556;28;19943;-62
2022/11/09 04:34:40;;;;;;;;;;;;;;;;;;5050798;28;19913;-61
2022/11/09 04:37:05;;;;;;;;;;;;;;;;;;5050339;28;20332;-61
2022/11/09 04:39:31;;;;;;;;;;;;;;;;;;5049879;28;20442;-61
2022/11/09 04:41:57;;;;;;;;;;;;;;;;;;5050263;28;19909;-61
2022/11/09 04:44:23;;;;;;;;;;;;;;;;;;5050246;28;19948;-61
2022/11/09 04:46:49;;;;;;;;;;;;;;;;;;5049689;28;19913;-61
2022/11/09 04:49:15;;;;;;;;;;;;;;;;;;5050276;28;19944;-62
2022/11/09 04:51:41;;;;;;;;;;;;;;;;;;5049960;28;19912;-62
2022/11/09 04:54:07;;;;;;;;;;;;;;;;;;5050506;28;19912;-61
2022/11/09 04:56:32;;;;;;;;;;;;;;;;;;5050220;28;20289;-61
2022/11/09 04:58:58;;;;;;;;;;;;;;;;;;5050052;28;19919;-61
2022/11/09 05:01:24;;;;;;;;;;;;;;;;;;5050428;28;20396;-62
2022/11/09 05:03:50;;;;;;;;;;;;;;;;;;5050099;28;19962;-61
2022/11/09 05:06:31;;;;;;;;;;;;;;;;;;5049676;28;20396;-62
2022/11/09 05:08:57;;;;;;;;;;;;;;;;;;5050002;28;19924;-61
2022/11/09 05:11:23;;;;;;;;;;;;;;;;;;5043074;28;20289;-61
2022/11/09 05:13:50;;;;;;;;;;;;;;;;;;5049838;28;19912;-61
2022/11/09 05:16:19;;;;;;;;;;;;;;;;;;5049598;28;20285;-61
2022/11/09 05:18:45;;;;;;;;;;;;;;;;;;5049852;28;19913;-62
2022/11/09 05:21:11;;;;;;;;;;;;;;;;;;5032166;28;19920;-62
2022/11/09 05:26:21;;;;;;;;;;;;;;;;;;5049412;28;19928;-61
2022/11/09 05:28:47;;;;;;;;;;;;;;;;;;5049768;28;19921;-61
2022/11/09 05:31:13;;;;;;;;;;;;;;;;;;5047460;28;20007;-60
2022/11/09 05:33:39;;;;;;;;;;;;;;;;;;5047306;28;20364;-61
2022/11/09 05:36:05;;;;;;;;;;;;;;;;;;5049194;28;19936;-61
2022/11/09 05:38:30;;;;;;;;;;;;;;;;;;5049041;28;20390;-61
2022/11/09 05:40:56;;;;;;;;;;;;;;;;;;5049285;28;19924;-61
2022/11/09 05:43:22;;;;;;;;;;;;;;;;;;5052154;28;19909;-61
2022/11/09 05:45:48;;;;;;;;;;;;;;;;;;5053060;28;20270;-61
2022/11/09 05:48:14;;;;;;;;;;;;;;;;;;5053305;28;19962;-62
2022/11/09 05:50:40;;;;;;;;;;;;;;;;;;5053470;28;20302;-61
2022/11/09 05:53:06;;;;;;;;;;;;;;;;;;5053068;28;19909;-61
2022/11/09 05:55:32;;;;;;;;;;;;;;;;;;5052967;28;20385;-61
2022/11/09 05:57:57;;;;;;;;;;;;;;;;;;5052898;28;19909;-60
2022/11/09 06:00:23;;;;;;;;;;;;;;;;;;5052416;28;20317;-60
2022/11/09 06:02:49;;;;;;;;;;;;;;;;;;5053403;28;19913;-61
2022/11/09 06:05:15;;;;;;;;;;;;;;;;;;5053582;28;20289;-61
2022/11/09 06:07:41;;;;;;;;;;;;;;;;;;5046064;28;19913;-61
2022/11/09 06:10:07;;;;;;;;;;;;;;;;;;5047023;28;20638;-61
2022/11/09 06:12:33;;;;;;;;;;;;;;;;;;5053034;28;19971;-61
2022/11/09 06:14:59;;;;;;;;;;;;;;;;;;5052717;28;19917;-61
2022/11/09 06:17:25;;;;;;;;;;;;;;;;;;5052738;28;19940;-60
2022/11/09 06:19:51;;;;;;;;;;;;;;;;;;5049696;28;19913;-61
2022/11/09 06:22:16;;;;;;;;;;;;;;;;;;5051314;28;19916;-61
2022/11/09 06:24:43;;;;;;;;;;;;;;;;;;5052658;28;19960;-61
2022/11/09 06:27:08;;;;;;;;;;;;;;;;;;5052951;28;20011;-61
2022/11/09 06:29:34;;;;;;;;;;;;;;;;;;5052013;28;20008;-61
2022/11/09 06:32:00;;;;;;;;;;;;;;;;;;5048831;28;19913;-61
2022/11/09 06:34:26;;;;;;;;;;;;;;;;;;5052227;28;20027;-61
2022/11/09 06:36:52;;;;;;;;;;;;;;;;;;5030975;28;19921;-61
2022/11/09 06:39:18;;;;;;;;;;;;;;;;;;5052104;28;19954;-61
2022/11/09 06:41:44;;;;;;;;;;;;;;;;;;5047661;28;19913;-61
2022/11/09 06:44:10;;;;;;;;;;;;;;;;;;5052199;28;19919;-60
2022/11/09 06:46:36;;;;;;;;;;;;;;;;;;5052164;28;19916;-61
2022/11/09 06:49:01;;;;;;;;;;;;;;;;;;5052028;28;20017;-60
2022/11/09 06:51:27;;;;;;;;;;;;;;;;;;5052595;28;19915;-61
2022/11/09 06:53:53;;;;;;;;;;;;;;;;;;5051665;28;19939;-61
2022/11/09 06:56:19;;;;;;;;;;;;;;;;;;5052168;28;20014;-61
2022/11/09 06:58:45;;;;;;;;;;;;;;;;;;5051832;28;19999;-61
2022/11/09 07:01:11;;;;;;;;;;;;;;;;;;5052738;28;20288;-60
2022/11/09 07:03:37;;;;;;;;;;;;;;;;;;5052412;28;19919;-60
2022/11/09 07:06:03;;;;;;;;;;;;;;;;;;5051804;28;19908;-61
2022/11/09 07:08:29;;;;;;;;;;;;;;;;;;5051885;28;19924;-61
2022/11/09 07:10:55;;;;;;;;;;;;;;;;;;5046837;28;20373;-70
2022/11/09 07:13:21;;;;;;;;;;;;;;;;;;5051864;28;19909;-70
2022/11/09 07:15:47;;;;;;;;;;;;;;;;;;5051885;28;20440;-72
2022/11/09 07:18:12;;;;;;;;;;;;;;;;;;5050889;28;19960;-70
2022/11/09 07:20:38;;;;;;;;;;;;;;;;;;5051854;28;19913;-70
2022/11/09 07:23:04;;;;;;;;;;;;;;;;;;5048437;28;19916;-70
2022/11/09 07:25:31;;;;;;;;;;;;;;;;;;5050646;28;19916;-70
2022/11/09 07:27:56;;;;;;;;;;;;;;;;;;5051314;28;19942;-71
2022/11/09 07:30:22;;;;;;;;;;;;;;;;;;5051700;28;20274;-70
2022/11/09 07:32:49;;;;;;;;;;;;;;;;;;5045736;28;19909;-69
2022/11/09 07:35:15;;;;;;;;;;;;;;;;;;5048306;28;19916;-69
2022/11/09 07:37:40;;;;;;;;;;;;;;;;;;5050327;28;19919;-70
2022/11/09 07:40:06;;;;;;;;;;;;;;;;;;5050154;28;19920;-71
2022/11/09 07:42:32;;;;;;;;;;;;;;;;;;5046988;28;20019;-71
2022/11/09 07:44:58;;;;;;;;;;;;;;;;;;5049586;28;19913;-71
2022/11/09 07:47:24;;;;;;;;;;;;;;;;;;5045591;28;19913;-70
2022/11/09 07:49:50;;;;;;;;;;;;;;;;;;5049167;28;19963;-70
2022/11/09 07:52:16;;;;;;;;;;;;;;;;;;5041309;28;19917;-71
2022/11/09 07:54:42;;;;;;;;;;;;;;;;;;5048193;28;19917;-70
2022/11/09 07:57:08;;;;;;;;;;;;;;;;;;5050312;28;19909;-75
2022/11/09 07:59:34;;;;;;;;;;;;;;;;;;5050730;28;20394;-75
2022/11/09 08:01:59;;;;;;;;;;;;;;;;;;5050828;28;19916;-74
2022/11/09 08:04:25;;;;;;;;;;;;;;;;;;5045288;28;19913;-74
2022/11/09 08:06:52;;;;;;;;;;;;;;;;;;5034278;28;20278;-75
2022/11/09 08:09:17;;;;;;;;;;;;;;;;;;5044798;28;19921;-75
2022/11/09 08:11:43;;;;;;;;;;;;;;;;;;5040443;28;19916;-75
2022/11/09 08:14:09;;;;;;;;;;;;;;;;;;5040046;28;19917;-76
2022/11/09 08:16:35;;;;;;;;;;;;;;;;;;5049886;28;20301;-74
2022/11/09 08:19:01;;;;;;;;;;;;;;;;;;5049735;28;20286;-74
2022/11/09 08:21:27;;;;;;;;;;;;;;;;;;5050143;28;20038;-76
2022/11/09 08:23:53;;;;;;;;;;;;;;;;;;5046450;28;20393;-74
2022/11/09 08:26:19;;;;;;;;;;;;;;;;;;5043356;28;20033;-76
2022/11/09 08:28:45;;;;;;;;;;;;;;;;;;5048675;28;19925;-75
2022/11/09 08:31:11;;;;;;;;;;;;;;;;;;5046761;28;19917;-77
2022/11/09 08:33:36;;;;;;;;;;;;;;;;;;5050603;28;19909;-76
2022/11/09 08:36:02;;;;;;;;;;;;;;;;;;5045460;28;19912;-76
2022/11/09 08:38:28;;;;;;;;;;;;;;;;;;5049794;28;19909;-76
2022/11/09 08:40:54;;;;;;;;;;;;;;;;;;5048075;28;19982;-76
2022/11/09 08:43:20;;;;;;;;;;;;;;;;;;5051472;28;19915;-76
2022/11/09 08:45:46;;;;;;;;;;;;;;;;;;5050194;28;20324;-76
2022/11/09 08:48:12;;;;;;;;;;;;;;;;;;5050120;28;20286;-76
2022/11/09 08:50:38;;;;;;;;;;;;;;;;;;5049417;28;19913;-76
2022/11/09 08:53:04;;;;;;;;;;;;;;;;;;5050479;28;20425;-75
2022/11/09 08:55:30;;;;;;;;;;;;;;;;;;5050372;28;20278;-76
2022/11/09 08:57:56;;;;;;;;;;;;;;;;;;5050683;28;19932;-76
2022/11/09 09:00:22;;;;;;;;;;;;;;;;;;5050708;28;19913;-77
2022/11/09 09:02:48;;;;;;;;;;;;;;;;;;5049929;28;19913;-75
2022/11/09 09:05:13;;;;;;;;;;;;;;;;;;5050860;28;20304;-77
2022/11/09 09:07:39;;;;;;;;;;;;;;;;;;5050193;28;20008;-76
2022/11/09 09:10:05;;;;;;;;;;;;;;;;;;5050342;28;20444;-75
2022/11/09 09:12:31;;;;;;;;;;;;;;;;;;5050764;28;19940;-76
2022/11/09 09:14:57;;;;;;;;;;;;;;;;;;5050513;28;19967;-76
2022/11/09 09:17:23;;;;;;;;;;;;;;;;;;5049143;28;19920;-76
2022/11/09 09:19:49;;;;;;;;;;;;;;;;;;5050176;28;19989;-76
2022/11/09 09:22:15;;;;;;;;;;;;;;;;;;5050537;28;20365;-76
2022/11/09 09:24:41;;;;;;;;;;;;;;;;;;5050095;28;19923;-75
2022/11/09 09:27:06;;;;;;;;;;;;;;;;;;5049619;28;20379;-76
2022/11/09 09:29:33;;;;;;;;;;;;;;;;;;5050123;28;19924;-76
2022/11/09 09:31:59;;;;;;;;;;;;;;;;;;5046984;28;20768;-75
2022/11/09 09:34:25;;;;;;;;;;;;;;;;;;5048906;28;19909;-76
2022/11/09 09:36:51;;;;;;;;;;;;;;;;;;5043949;28;20000;-76
2022/11/09 09:39:17;;;;;;;;;;;;;;;;;;5049936;28;20353;-75
2022/11/09 09:41:43;;;;;;;;;;;;;;;;;;5049901;28;20038;-76
2022/11/09 09:44:09;;;;;;;;;;;;;;;;;;5047354;28;19909;-75
2022/11/09 09:46:34;;;;;;;;;;;;;;;;;;5049758;28;19909;-76
2022/11/09 09:49:00;;;;;;;;;;;;;;;;;;5031840;28;19917;-75
2022/11/09 09:51:26;;;;;;;;;;;;;;;;;;5049491;28;19928;-76
2022/11/09 09:53:52;;;;;;;;;;;;;;;;;;5049970;28;19924;-75
2022/11/09 09:56:18;;;;;;;;;;;;;;;;;;5049734;28;19917;-76
2022/11/09 09:58:44;;;;;;;;;;;;;;;;;;5042988;28;19909;-76
2022/11/09 10:01:11;;;;;;;;;;;;;;;;;;5049962;28;20003;-77
2022/11/09 10:03:37;;;;;;;;;;;;;;;;;;5050080;28;20387;-76
2022/11/09 10:06:02;;;;;;;;;;;;;;;;;;5049439;28;20007;-76
2022/11/09 10:08:28;;;;;;;;;;;;;;;;;;5049556;28;19917;-76
2022/11/09 10:10:54;;;;;;;;;;;;;;;;;;5049768;28;20358;-76
2022/11/09 10:13:20;;;;;;;;;;;;;;;;;;5049313;28;19916;-76
2022/11/09 10:15:46;;;;;;;;;;;;;;;;;;5049445;28;19913;-76
2022/11/09 10:18:12;;;;;;;;;;;;;;;;;;5049645;28;19955;-76
2022/11/09 10:20:38;;;;;;;;;;;;;;;;;;5048749;28;19913;-76
2022/11/09 10:23:04;;;;;;;;;;;;;;;;;;5049688;28;19995;-76
2022/11/09 10:25:29;;;;;;;;;;;;;;;;;;5048811;28;19917;-76
2022/11/09 10:27:55;;;;;;;;;;;;;;;;;;5044629;28;19943;-76
2022/11/09 10:30:21;;;;;;;;;;;;;;;;;;5052713;28;19924;-76
2022/11/09 10:32:47;;;;;;;;;;;;;;;;;;5047243;28;19913;-76
2022/11/09 10:35:13;;;;;;;;;;;;;;;;;;5052583;28;20019;-76
2022/11/09 10:37:39;;;;;;;;;;;;;;;;;;5052697;28;19919;-76
2022/11/09 10:40:05;;;;;;;;;;;;;;;;;;5053007;28;19912;-76
2022/11/09 10:42:31;;;;;;;;;;;;;;;;;;5053024;28;20039;-76
2022/11/09 10:44:57;;;;;;;;;;;;;;;;;;5053142;28;19913;-76
2022/11/09 10:47:25;;;;;;;;;;;;;;;;;;5052935;28;19913;-76
2022/11/09 10:49:51;;;;;;;;;;;;;;;;;;5052406;28;20016;-76
2022/11/09 10:52:16;;;;;;;;;;;;;;;;;;5052962;28;20003;-76
2022/11/09 10:54:42;;;;;;;;;;;;;;;;;;5052480;28;20412;-76
2022/11/09 10:57:08;;;;;;;;;;;;;;;;;;5052560;28;19982;-75
2022/11/09 10:59:34;;;;;;;;;;;;;;;;;;5053140;28;19909;-77
2022/11/09 11:02:00;;;;;;;;;;;;;;;;;;5052687;28;19920;-76
2022/11/09 11:04:26;;;;;;;;;;;;;;;;;;5052458;28;20401;-77
2022/11/09 11:06:52;;;;;;;;;;;;;;;;;;5052558;28;20371;-77
2022/11/09 11:09:18;;;;;;;;;;;;;;;;;;5052585;28;20380;-77
2022/11/09 11:11:44;;;;;;;;;;;;;;;;;;5051900;28;19920;-74
2022/11/09 11:14:10;;;;;;;;;;;;;;;;;;5052404;28;20366;-75
2022/11/09 11:16:36;;;;;;;;;;;;;;;;;;5052498;28;19909;-76
2022/11/09 11:19:01;;;;;;;;;;;;;;;;;;5052170;28;20277;-75
2022/11/09 11:21:27;;;;;;;;;;;;;;;;;;5051916;28;19920;-76
2022/11/09 11:23:54;;;;;;;;;;;;;;;;;;5050214;28;19917;-77
2022/11/09 11:26:19;;;;;;;;;;;;;;;;;;5046099;28;20011;-77
2022/11/09 11:28:45;;;;;;;;;;;;;;;;;;5052479;28;20007;-76
2022/11/09 11:31:11;;;;;;;;;;;;;;;;;;5052501;28;19912;-76
2022/11/09 11:33:37;;;;;;;;;;;;;;;;;;5052055;28;19909;-77
2022/11/09 11:36:03;;;;;;;;;;;;;;;;;;5052535;28;19919;-76
2022/11/09 11:38:29;;;;;;;;;;;;;;;;;;5052138;28;20297;-76
2022/11/09 11:40:55;;;;;;;;;;;;;;;;;;5050260;28;19963;-76
2022/11/09 11:43:21;;;;;;;;;;;;;;;;;;5052096;28;20388;-76
2022/11/09 11:45:46;;;;;;;;;;;;;;;;;;5052184;28;19909;-76
2022/11/09 11:48:12;;;;;;;;;;;;;;;;;;5051965;28;19913;-76
2022/11/09 11:50:38;;;;;;;;;;;;;;;;;;5052101;28;19917;-76
2022/11/09 11:53:04;;;;;;;;;;;;;;;;;;5051575;28;19912;-76
2022/11/09 11:55:30;;;;;;;;;;;;;;;;;;5051163;28;19909;-76
2022/11/09 11:57:56;;;;;;;;;;;;;;;;;;5051782;28;19916;-76
2022/11/09 12:00:22;;;;;;;;;;;;;;;;;;5051009;28;19921;-75
2022/11/09 12:02:48;;;;;;;;;;;;;;;;;;5051158;28;20011;-76
2022/11/09 12:05:14;;;;;;;;;;;;;;;;;;5051705;28;19913;-76
2022/11/09 12:07:40;;;;;;;;;;;;;;;;;;5040974;28;20291;-76
2022/11/09 12:10:05;;;;;;;;;;;;;;;;;;5051161;28;20301;-76
2022/11/09 12:12:31;;;;;;;;;;;;;;;;;;5051344;28;19909;-76
2022/11/09 12:14:57;;;;;;;;;;;;;;;;;;5051592;28;19974;-74
2022/11/09 12:17:23;;;;;;;;;;;;;;;;;;5051123;28;20344;-77
2022/11/09 12:19:51;;;;;;;;;;;;;;;;;;5051223;28;19919;-76
2022/11/09 12:22:17;;;;;;;;;;;;;;;;;;5050991;28;19935;-77
2022/11/09 12:24:43;;;;;;;;;;;;;;;;;;5051210;28;20385;-77
2022/11/09 12:27:09;;;;;;;;;;;;;;;;;;5051021;28;19955;-77
2022/11/09 12:29:34;;;;;;;;;;;;;;;;;;5047152;28;19921;-76
2022/11/09 12:32:00;;;;;;;;;;;;;;;;;;5050775;28;19908;-76
2022/11/09 12:34:26;;;;;;;;;;;;;;;;;;5050881;28;19959;-76
2022/11/09 12:36:52;;;;;;;;;;;;;;;;;;5032511;28;20301;-76
2022/11/09 12:39:18;;;;;;;;;;;;;;;;;;5051406;28;19962;-76
2022/11/09 12:41:44;;;;;;;;;;;;;;;;;;5050665;28;20007;-76
2022/11/09 12:44:10;;;;;;;;;;;;;;;;;;5050703;28;19916;-76
2022/11/09 12:46:36;;;;;;;;;;;;;;;;;;5050840;28;20369;-76
2022/11/09 12:49:02;;;;;;;;;;;;;;;;;;5050942;28;19921;-75
2022/11/09 12:51:27;;;;;;;;;;;;;;;;;;5050099;28;20393;-77
2022/11/09 12:53:53;;;;;;;;;;;;;;;;;;5049876;28;20015;-77
2022/11/09 12:56:19;;;;;;;;;;;;;;;;;;5050183;28;20628;-78
2022/11/09 12:58:45;;;;;;;;;;;;;;;;;;5039583;28;19920;-77
2022/11/09 13:01:11;;;;;;;;;;;;;;;;;;5048043;28;20057;-76
2022/11/09 13:03:37;;;;;;;;;;;;;;;;;;5047505;28;20690;-78
2022/11/09 13:06:03;;;;;;;;;;;;;;;;;;5047798;28;19920;-81
2022/11/09 13:08:29;;;;;;;;;;;;;;;;;;5045629;28;20054;-79
2022/11/09 13:10:55;;;;;;;;;;;;;;;;;;5047540;28;19913;-77
2022/11/09 13:13:21;;;;;;;;;;;;;;;;;;5047603;28;19912;-76
2022/11/09 13:15:47;;;;;;;;;;;;;;;;;;5043132;28;20670;-77
2022/11/09 13:18:13;;;;;;;;;;;;;;;;;;5042566;28;19913;-78
2022/11/09 13:20:39;;;;;;;;;;;;;;;;;;5042127;28;19927;-67
2022/11/09 13:23:06;;;;;;;;;;;;;;;;;;5041884;28;19960;-66
2022/11/09 13:25:32;;;;;;;;;;;;;;;;;;5047936;28;20258;-67
2022/11/09 13:27:58;;;;;;;;;;;;;;;;;;5046897;28;20378;-67
2022/11/09 13:30:24;;;;;;;;;;;;;;;;;;5042515;28;19956;-68
2022/11/09 13:32:49;;;;;;;;;;;;;;;;;;5047582;28;20473;-68
2022/11/09 13:35:15;;;;;;;;;;;;;;;;;;5045279;28;19946;-68
2022/11/09 13:37:41;;;;;;;;;;;;;;;;;;5047928;28;20102;-68
2022/11/09 13:40:07;;;;;;;;;;;;;;;;;;5046761;28;19960;-68
2022/11/09 13:42:33;;;;;;;;;;;;;;;;;;5044094;28;19940;-68
2022/11/09 13:44:59;;;;;;;;;;;;;;;;;;5040355;28;20468;-68
2022/11/09 13:47:25;;;;;;;;;;;;;;;;;;5046950;28;19932;-68
2022/11/09 13:49:51;;;;;;;;;;;;;;;;;;5047531;28;19925;-67
2022/11/09 13:52:17;;;;;;;;;;;;;;;;;;5046871;28;20011;-67
2022/11/09 13:54:42;;;;;;;;;;;;;;;;;;5045393;28;19963;-66
2022/11/09 13:57:08;;;;;;;;;;;;;;;;;;5045029;28;20015;-67
2022/11/09 13:59:34;;;;;;;;;;;;;;;;;;5047204;28;19917;-67
2022/11/09 14:02:00;;;;;;;;;;;;;;;;;;5044465;28;19912;-67
2022/11/09 14:04:26;;;;;;;;;;;;;;;;;;5046899;28;20301;-66
2022/11/09 14:06:52;;;;;;;;;;;;;;;;;;5051517;28;19999;-65
2022/11/09 14:09:18;;;;;;;;;;;;;;;;;;5051516;28;19968;-66
2022/11/09 14:11:44;;;;;;;;;;;;;;;;;;5050517;28;20449;-67
2022/11/09 14:14:10;;;;;;;;;;;;;;;;;;5051581;28;19924;-67
2022/11/09 14:16:35;;;;;;;;;;;;;;;;;;5051044;28;20445;-68
2022/11/09 14:19:02;;;;;;;;;;;;;;;;;;5051063;28;20274;-67
2022/11/09 14:21:27;;;;;;;;;;;;;;;;;;5049150;28;20386;-67
2022/11/09 14:23:53;;;;;;;;;;;;;;;;;;5048148;28;19916;-67
2022/11/09 14:26:20;;;;;;;;;;;;;;;;;;5047341;28;19968;-67
2022/11/09 14:28:45;;;;;;;;;;;;;;;;;;5044547;28;19923;-67
2022/11/09 14:31:11;;;;;;;;;;;;;;;;;;5048260;28;19917;-67
2022/11/09 14:33:37;;;;;;;;;;;;;;;;;;5051322;28;19917;-68
2022/11/09 14:36:03;;;;;;;;;;;;;;;;;;5050552;28;19992;-66
2022/11/09 14:38:29;;;;;;;;;;;;;;;;;;5050979;28;20381;-68
2022/11/09 14:40:55;;;;;;;;;;;;;;;;;;5046794;28;19916;-66
2022/11/09 14:43:21;;;;;;;;;;;;;;;;;;5046991;28;19932;-67
2022/11/09 14:45:47;;;;;;;;;;;;;;;;;;5050228;28;19913;-66
2022/11/09 14:48:13;;;;;;;;;;;;;;;;;;5050923;28;20003;-68
2022/11/09 14:50:39;;;;;;;;;;;;;;;;;;5048164;28;19932;-68
2022/11/09 14:53:05;;;;;;;;;;;;;;;;;;5048306;28;19916;-67
2022/11/09 14:55:31;;;;;;;;;;;;;;;;;;5049872;28;19912;-67
2022/11/09 14:57:56;;;;;;;;;;;;;;;;;;5050605;28;19959;-66
2022/11/09 15:00:22;;;;;;;;;;;;;;;;;;5049077;28;19917;-67
2022/11/09 15:02:48;;;;;;;;;;;;;;;;;;5047978;28;19913;-67
2022/11/09 15:05:14;;;;;;;;;;;;;;;;;;5049542;28;19952;-67
2022/11/09 15:07:40;;;;;;;;;;;;;;;;;;5048087;28;20438;-66
2022/11/09 15:10:06;;;;;;;;;;;;;;;;;;5049895;28;19925;-66
2022/11/09 15:12:32;;;;;;;;;;;;;;;;;;5049532;28;19924;-66
2022/11/09 15:15:00;;;;;;;;;;;;;;;;;;5045505;28;19916;-67
2022/11/09 15:17:26;;;;;;;;;;;;;;;;;;5041772;28;19912;-66
2022/11/09 15:19:52;;;;;;;;;;;;;;;;;;5046602;28;20417;-67
2022/11/09 15:22:18;;;;;;;;;;;;;;;;;;5041463;28;20283;-66
2022/11/09 15:24:44;;;;;;;;;;;;;;;;;;5043803;28;20019;-66
2022/11/09 15:27:10;;;;;;;;;;;;;;;;;;5041329;28;20433;-67
2022/11/09 15:29:36;;;;;;;;;;;;;;;;;;5045058;28;20020;-65
2022/11/09 15:32:01;;;;;;;;;;;;;;;;;;5042542;28;19925;-67
2022/11/09 15:34:27;;;;;;;;;;;;;;;;;;5037358;28;19928;-66
2022/11/09 15:36:53;;;;;;;;;;;;;;;;;;5045436;28;19917;-67
2022/11/09 15:39:19;;;;;;;;;;;;;;;;;;5042832;28;19921;-67
2022/11/09 15:41:45;;;;;;;;;;;;;;;;;;5047100;28;19921;-67
2022/11/09 15:44:11;;;;;;;;;;;;;;;;;;5047761;28;19991;-66
2022/11/09 15:46:37;;;;;;;;;;;;;;;;;;5046358;28;20259;-67
2022/11/09 15:49:03;;;;;;;;;;;;;;;;;;5047023;28;20019;-67
2022/11/09 15:51:28;;;;;;;;;;;;;;;;;;5044944;28;20921;-65
2022/11/09 15:53:54;;;;;;;;;;;;;;;;;;5047850;28;19963;-67
2022/11/09 15:56:21;;;;;;;;;;;;;;;;;;5048936;28;19923;-66
2022/11/09 15:58:48;;;;;;;;;;;;;;;;;;5048603;28;19975;-67
2022/11/09 16:01:13;;;;;;;;;;;;;;;;;;5047399;28;20515;-68
2022/11/09 16:03:39;;;;;;;;;;;;;;;;;;5048162;28;20445;-68
2022/11/09 16:06:05;;;;;;;;;;;;;;;;;;5046614;28;19916;-66
2022/11/09 16:08:31;;;;;;;;;;;;;;;;;;5048400;28;19913;-67
2022/11/09 16:10:57;;;;;;;;;;;;;;;;;;5048270;28;20369;-67
2022/11/09 16:13:23;;;;;;;;;;;;;;;;;;5047335;28;19999;-67
2022/11/09 16:15:49;;;;;;;;;;;;;;;;;;5048712;28;19920;-67
2022/11/09 16:18:16;;;;;;;;;;;;;;;;;;5047453;28;19978;-67
2022/11/09 16:20:42;;;;;;;;;;;;;;;;;;5047869;28;19986;-67
2022/11/09 16:23:08;;;;;;;;;;;;;;;;;;5048148;28;20335;-67
2022/11/09 16:25:34;;;;;;;;;;;;;;;;;;5047781;28;19967;-67
2022/11/09 16:28:00;;;;;;;;;;;;;;;;;;5046845;28;20379;-67
2022/11/09 16:30:26;;;;;;;;;;;;;;;;;;5046200;28;19929;-68
2022/11/09 16:32:52;;;;;;;;;;;;;;;;;;5045380;28;20313;-67
2022/11/09 16:35:18;;;;;;;;;;;;;;;;;;5047390;28;19978;-70
2022/11/09 16:37:44;;;;;;;;;;;;;;;;;;5044881;28;20675;-66
2022/11/09 16:40:10;;;;;;;;;;;;;;;;;;5047001;28;20278;-67